^^
Station Historical Data from High Park Village Toronto
 
Daily Summary for June 27, 2017 Units:  Metric    English   Both
« Previous Day
Next Day »
Daily Weekly Monthly Yearly Custom
  Current: High: Low: Average:
Temperature: 20.9 °C 21.8 °C 13.5 °C 15.6 °C
Dew Point: 7.5 °C 11.8 °C 7.5 °C 9.9 °C
Humidity: 42% 79% 42% 69%
Wind Speed: 14.8km/h 18.5km/h 0km/h 3.1km/h
Wind Gust: 14.8km/h 18.5km/h - -
WindNW - - WSW
Pressure: 1013.8 hPa 1014.1 hPa 1012.1 hPa -
Precipitation: 3.3 mm      
Historical Graphs
 
 
Tabular Data for June 27, 2017
Time Temperature Dew Point Pressure Wind Wind Speed Wind Gust Humidity Rainfall Rate (Hourly) solar Conditions
00:01 15.5 °C 10.1 °C 1013.4 hPa Calm     70% 0 mm 0.0 W/m2 RA
00:06 15.4 °C 10 °C 1013.4 hPa Calm     70% 0 mm 0.0 W/m2 RA
00:11 15.3 °C 9.7 °C 1013.4 hPa Calm     69% 0 mm 0.0 W/m2
00:16 15.3 °C 9.6 °C 1013.4 hPa Calm     69% 0 mm 0.0 W/m2
00:21 15.2 °C 9.6 °C 1013.4 hPa Calm     69% 0 mm 0.0 W/m2
00:26 15.2 °C 9.6 °C 1013.1 hPa Calm     69% 0 mm 0.0 W/m2
00:31 15.2 °C 9.4 °C 1013.1 hPa WSW 1.9 km/h 1.9 km/h 68% 0 mm 0.0 W/m2
00:36 15.3 °C 9.4 °C 1013.1 hPa WSW 1.9 km/h   68% 0 mm 0.0 W/m2
00:41 15.3 °C 9.2 °C 1013.1 hPa Calm     67% 0 mm 0.0 W/m2
00:44 15.3 °C 9.2 °C 1013.1 hPa Calm     67% 0 mm 0.0 W/m2
00:49 15.3 °C 9.2 °C 1013.1 hPa SE 1.9 km/h   67% 0 mm 0.0 W/m2
00:52 15.3 °C 9.2 °C 1013.1 hPa Calm     67% 0 mm 0.0 W/m2
00:57 15.3 °C 9.2 °C 1013.1 hPa Calm     67% 0 mm 0.0 W/m2
01:02 15.3 °C 9.2 °C 1013.1 hPa Calm     67% 0 mm 0.0 W/m2
01:07 15.3 °C 9.4 °C 1013.1 hPa Calm     68% 0 mm 0.0 W/m2
01:12 15.3 °C 9.4 °C 1013.1 hPa ESE 1.9 km/h   68% 0 mm 0.0 W/m2
01:17 15.3 °C 9.4 °C 1013.1 hPa Calm     68% 0 mm 0.0 W/m2
01:19 15.3 °C 9.4 °C 1013.1 hPa Calm     68% 0 mm 0.0 W/m2
01:24 15.2 °C 9.4 °C 1013.1 hPa WSW 1.9 km/h 1.9 km/h 68% 0 mm 0.0 W/m2
01:29 15.2 °C 9.4 °C 1013.1 hPa Calm     68% 0 mm 0.0 W/m2
01:34 15.2 °C 9.3 °C 1013.1 hPa Calm     68% 0 mm 0.0 W/m2
01:39 15.2 °C 9.5 °C 1013.1 hPa Calm     69% 0 mm 0.0 W/m2
01:44 15.2 °C 9.5 °C 1012.8 hPa Calm     69% 0 mm 0.0 W/m2
01:49 15.2 °C 9.5 °C 1012.8 hPa Calm     69% 0 mm 0.0 W/m2
01:54 15.2 °C 9.5 °C 1012.8 hPa Calm     69% 0 mm 0.0 W/m2
01:59 15.2 °C 9.5 °C 1012.8 hPa Calm     69% 0 mm 0.0 W/m2
02:04 15.1 °C 9.5 °C 1012.4 hPa Calm     69% 0 mm 0.0 W/m2
02:09 15.1 °C 9.5 °C 1012.4 hPa Calm     69% 0 mm 0.0 W/m2
02:14 15.1 °C 9.5 °C 1012.4 hPa Calm     69% 0 mm 0.0 W/m2
02:19 15.1 °C 9.5 °C 1012.4 hPa Calm     69% 0 mm 0.0 W/m2
02:24 15.1 °C 9.5 °C 1012.4 hPa Calm     69% 0 mm 0.0 W/m2
02:29 15.1 °C 9.4 °C 1012.1 hPa NW 1.9 km/h 1.9 km/h 69% 0 mm 0.0 W/m2
02:34 14.9 °C 9.3 °C 1012.4 hPa Calm     69% 0 mm 0.0 W/m2
02:39 14.8 °C 9.2 °C 1012.4 hPa NNW 3.7 km/h 3.7 km/h 69% 0 mm 0.0 W/m2
02:44 14.6 °C 9.2 °C 1012.4 hPa NNW 3.7 km/h 3.7 km/h 70% 0 mm 0.0 W/m2
02:49 14.5 °C 9.1 °C 1012.4 hPa NW 1.9 km/h   70% 0 mm 0.0 W/m2
02:54 14.4 °C 9.3 °C 1012.4 hPa Calm     71% 0 mm 0.0 W/m2
02:59 14.4 °C 9.2 °C 1012.4 hPa NNW 1.9 km/h 1.9 km/h 71% 0 mm 0.0 W/m2
03:04 14.3 °C 9.2 °C 1012.4 hPa NNW 1.9 km/h 1.9 km/h 71% 0 mm 0.0 W/m2
03:09 14.3 °C 9.2 °C 1012.4 hPa NNW 1.9 km/h   71% 0 mm 0.0 W/m2
03:14 14.4 °C 9.2 °C 1012.4 hPa NW 1.6 km/h   71% 0 mm 0.0 W/m2
03:19 14.4 °C 9.2 °C 1012.4 hPa Calm   0.2 km/h 71% 0 mm 0.0 W/m2
03:24 14.4 °C 9.3 °C 1012.4 hPa NNW 1.9 km/h   71% 0 mm 0.0 W/m2
03:29 14.4 °C 9.3 °C 1012.4 hPa Calm   0.2 km/h 71% 0 mm 0.0 W/m2
03:34 14.4 °C 9.3 °C 1012.4 hPa Calm     71% 0 mm 0.0 W/m2
03:39 14.5 °C 9.3 °C 1012.4 hPa Calm     71% 0 mm 0.0 W/m2
03:44 14.6 °C 9.4 °C 1012.4 hPa Calm     71% 0 mm 0.0 W/m2
03:49 14.6 °C 9.4 °C 1012.4 hPa Calm     71% 0 mm 0.0 W/m2
03:55 14.7 °C 9.5 °C 1012.4 hPa South 1.9 km/h 1.9 km/h 71% 0 mm 0.0 W/m2
04:00 14.6 °C 9.4 °C 1012.4 hPa South 1.9 km/h   71% 0 mm 0.0 W/m2
04:05 14.6 °C 9.4 °C 1012.8 hPa South 1.9 km/h 1.9 km/h 71% 0 mm 0.0 W/m2
04:10 14.5 °C 9.5 °C 1012.8 hPa SSE 1.9 km/h   72% 0 mm 0.0 W/m2
04:15 14.5 °C 9.5 °C 1012.8 hPa Calm     72% 0 mm 0.0 W/m2
04:20 14.5 °C 9.5 °C 1013.1 hPa SSE 3.7 km/h 3.7 km/h 72% 0 mm 0.0 W/m2
04:25 14.5 °C 9.5 °C 1012.8 hPa Calm     72% 0 mm 0.0 W/m2
04:30 14.4 °C 9.4 °C 1012.8 hPa Calm     72% 0 mm 0.0 W/m2
04:35 14.5 °C 9.5 °C 1012.8 hPa Calm     72% 0 mm 0.0 W/m2
04:40 14.4 °C 9.4 °C 1013.1 hPa SSE 1.6 km/h 1.6 km/h 72% 0 mm 0.0 W/m2
04:45 14.4 °C 9.3 °C 1013.1 hPa Calm     71% 0 mm 0.0 W/m2
04:50 14.4 °C 9.2 °C 1013.1 hPa WNW 1.9 km/h 1.9 km/h 71% 0 mm 0.0 W/m2
04:55 14.4 °C 9.2 °C 1013.1 hPa Calm     71% 0 mm 0.0 W/m2
05:00 14.4 °C 9.2 °C 1013.1 hPa SSW 3.7 km/h   71% 0 mm 0.0 W/m2
05:05 14.4 °C 9.2 °C 1013.1 hPa WSW 1.9 km/h 1.9 km/h 71% 0 mm 0.0 W/m2
05:06 14.4 °C 9.2 °C 1013.1 hPa Calm   1.6 km/h 71% 0 mm 0.0 W/m2 RA
05:11 14.3 °C 9.2 °C 1012.8 hPa Calm   1.6 km/h 71% 0 mm 0.0 W/m2 RA
05:16 14.3 °C 9.1 °C 1012.8 hPa Calm   4.8 km/h 71% 0 mm 0.0 W/m2 RA
05:21 14.2 °C 9.1 °C 1012.8 hPa Calm   4.8 km/h 71% 0 mm 0.0 W/m2 RA
05:26 14.2 °C 9.2 °C 1012.8 hPa NNW 1.9 km/h   72% 0 mm 0.0 W/m2 CLR
05:31 14.1 °C 9.2 °C 1012.8 hPa WSW 1.9 km/h   72% 0 mm 0.0 W/m2 CLR
05:36 14.1 °C 9.2 °C 1012.8 hPa WNW 1.9 km/h   72% 0 mm 0.0 W/m2 CLR
05:41 14.1 °C 9.3 °C 1012.8 hPa WNW 1.9 km/h 1.9 km/h 73% 0 mm 0.0 W/m2 CLR
05:46 14 °C 9.2 °C 1012.8 hPa NNW 1.9 km/h 1.9 km/h 73% 0 mm 0.0 W/m2 CLR
05:51 13.9 °C 9.4 °C 1012.8 hPa NNW 3.7 km/h 3.7 km/h 74% 0 mm 0.0 W/m2 CLR
05:56 13.8 °C 9.3 °C 1012.8 hPa NNW 1.9 km/h 1.9 km/h 74% 0 mm 0.0 W/m2 CLR
06:01 13.8 °C 9.4 °C 1012.8 hPa Calm     75% 0 mm 0.0 W/m2 CLR
06:06 13.7 °C 9.6 °C 1012.8 hPa Calm     76% 0 mm 0.0 W/m2 CLR
06:11 13.7 °C 9.6 °C 1012.8 hPa Calm     76% 0 mm 0.0 W/m2 CLR
06:16 13.7 °C 9.6 °C 1012.8 hPa NNW 1.9 km/h   76% 0 mm 0.0 W/m2 CLR
06:21 13.8 °C 9.8 °C 1013.1 hPa SW 3.7 km/h 3.7 km/h 77% 0 mm 0.0 W/m2 CLR
06:26 13.7 °C 9.8 °C 1013.1 hPa NNW 3.7 km/h 3.7 km/h 77% 0 mm 0.0 W/m2 CLR
06:31 13.7 °C 9.9 °C 1013.1 hPa NW 1.9 km/h 1.9 km/h 78% 0 mm 0.0 W/m2 CLR
06:36 13.6 °C 9.8 °C 1013.1 hPa NNW 1.9 km/h   78% 0 mm 0.0 W/m2 CLR
06:41 13.5 °C 9.7 °C 1013.1 hPa NNE 1.9 km/h 1.9 km/h 78% 0 mm 5.0 W/m2 CLR
06:46 13.5 °C 9.7 °C 1013.1 hPa Calm     78% 0 mm 7.0 W/m2 CLR
06:51 13.5 °C 9.9 °C 1013.1 hPa Calm     79% 0 mm 7.0 W/m2 CLR
06:56 13.6 °C 10 °C 1013.4 hPa Calm     79% 0 mm 9.0 W/m2 CLR
07:01 13.7 °C 10.2 °C 1013.4 hPa Calm     79% 0 mm 11.0 W/m2 OVC
07:06 13.8 °C 10.3 °C 1013.4 hPa Calm     79% 0 mm 11.0 W/m2 OVC
07:11 13.9 °C 10.4 °C 1013.4 hPa Calm     79% 0 mm 12.0 W/m2 OVC
07:16 14 °C 10.4 °C 1013.4 hPa Calm     79% 0 mm 12.0 W/m2 OVC
07:21 14 °C 10.4 °C 1013.4 hPa Calm     79% 0 mm 12.0 W/m2 OVC
07:26 14 °C 10.4 °C 1013.4 hPa Calm     79% 0 mm 14.0 W/m2 OVC
07:31 14 °C 10.4 °C 1013.4 hPa Calm     79% 0 mm 16.0 W/m2 OVC
07:36 14 °C 10.4 °C 1013.4 hPa Calm     79% 0 mm 14.0 W/m2 OVC
07:41 14 °C 10.4 °C 1013.4 hPa Calm     79% 0 mm 16.0 W/m2 OVC
07:46 14 °C 10.2 °C 1013.4 hPa Calm     78% 0 mm 19.0 W/m2 OVC
07:51 14 °C 10.2 °C 1013.4 hPa Calm     78% 0 mm 26.0 W/m2 OVC
07:56 14 °C 10.2 °C 1013.8 hPa Calm     78% 0 mm 25.0 W/m2 OVC
08:01 14.1 °C 10.3 °C 1013.8 hPa Calm     78% 0 mm 21.0 W/m2 OVC
08:06 14.2 °C 10.4 °C 1013.8 hPa Calm     78% 0 mm 28.0 W/m2 OVC
08:11 14.2 °C 10.4 °C 1013.8 hPa Calm     78% 0 mm 35.0 W/m2 OVC
08:16 14.3 °C 10.5 °C 1013.8 hPa Calm     78% 0 mm 33.0 W/m2 OVC
08:21 13.9 °C 10.1 °C 1013.8 hPa Calm     78% 0 mm 40.0 W/m2 OVC
08:26 13.9 °C 10.2 °C 1013.8 hPa Calm     78% 0 mm 42.0 W/m2 OVC
08:31 13.9 °C 10.2 °C 1013.8 hPa Calm     78% 0 mm 49.0 W/m2 OVC
08:36 13.9 °C 10.1 °C 1013.8 hPa Calm     78% 0 mm 51.0 W/m2 OVC
08:41 13.8 °C 9.9 °C 1013.8 hPa Calm     77% 0 mm 42.0 W/m2 OVC
08:46 13.8 °C 9.9 °C 1013.8 hPa Calm     77% 0 mm 35.0 W/m2 OVC
08:51 13.9 °C 9.9 °C 1013.8 hPa Calm     77% 0 mm 40.0 W/m2 OVC
08:56 13.9 °C 10 °C 1013.8 hPa Calm     77% 0 mm 37.0 W/m2 OVC
09:01 14 °C 9.8 °C 1013.8 hPa Calm     76% 0 mm 37.0 W/m2 OVC
09:06 14.1 °C 9.9 °C 1013.8 hPa Calm     76% 0 mm 35.0 W/m2 RA
09:11 14.1 °C 9.9 °C 1013.8 hPa Calm     76% 0 mm 56.0 W/m2 RA
09:16 14.2 °C 10 °C 1013.8 hPa Calm     76% 0 mm 69.0 W/m2 RA
09:21 14.3 °C 10.2 °C 1013.8 hPa Calm     76% 0 mm 65.0 W/m2 RA
09:26 14.5 °C 10.3 °C 1013.8 hPa Calm     76% 0 mm 69.0 W/m2 RA
09:31 14.6 °C 10.4 °C 1013.8 hPa Calm   1.6 km/h 76% 0 mm 58.0 W/m2 RA
09:36 14.7 °C 10.3 °C 1013.8 hPa Calm     75% 0 mm 46.0 W/m2 RA
09:41 14.8 °C 10.4 °C 1013.8 hPa Calm   1.6 km/h 75% 0 mm 44.0 W/m2 RA
09:46 14.8 °C 10.2 °C 1013.8 hPa Calm   1.6 km/h 74% 0 mm 39.0 W/m2 RA
09:51 14.9 °C 10.3 °C 1013.8 hPa Calm   1.6 km/h 74% 0 mm 35.0 W/m2 RA
09:56 14.9 °C 10.3 °C 1013.8 hPa Calm     74% 0 mm 35.0 W/m2 RA
10:01 15.1 °C 10.4 °C 1013.8 hPa Calm     74% 0 mm 35.0 W/m2 RA
10:06 15.1 °C 10.5 °C 1013.8 hPa Calm     74% 0 mm 35.0 W/m2 RA
10:11 14.8 °C 10.2 °C 1013.8 hPa Calm     74% 0 mm 33.0 W/m2 RA
10:16 14.8 °C 10.2 °C 1013.8 hPa Calm   1.6 km/h 74% 0 mm 33.0 W/m2 RA
10:21 14.8 °C 10.1 °C 1013.8 hPa Calm   6.4 km/h 73% 0 mm 37.0 W/m2 RA
10:25 15.2 °C 10.4 °C 1013.8 hPa Calm     73% 0 mm 35.0 W/m2 OVC
10:30 15.3 °C 10.3 °C 1013.8 hPa South 1.6 km/h 1.6 km/h 72% 0 mm 40.0 W/m2 OVC
10:35 15.4 °C 10.4 °C 1013.4 hPa NW 1.9 km/h   72% 0 mm 42.0 W/m2 OVC
10:40 15.7 °C 10.4 °C 1013.4 hPa Calm     71% 0 mm 56.0 W/m2 OVC
10:45 15.8 °C 10.4 °C 1013.4 hPa SSE 1.9 km/h   70% 0 mm 100.0 W/m2 OVC
10:50 16.1 °C 10.6 °C 1013.4 hPa SE 1.9 km/h   70% 0 mm 76.0 W/m2 OVC
10:55 16.2 °C 10.3 °C 1013.4 hPa Calm     68% 0 mm 79.0 W/m2 OVC
11:00 16.4 °C 10.3 °C 1013.4 hPa SSE 3.7 km/h 3.7 km/h 67% 0 mm 72.0 W/m2 OVC
11:05 16.6 °C 10 °C 1013.4 hPa SSE 1.9 km/h 1.9 km/h 65% 0 mm 86.0 W/m2 OVC
11:10 16.9 °C 10.5 °C 1013.4 hPa South 1.9 km/h 1.9 km/h 66% 0 mm 100.0 W/m2 OVC
11:15 16.9 °C 10.7 °C 1013.4 hPa South 1.9 km/h 1.9 km/h 67% 0 mm 130.0 W/m2 OVC
11:20 16.7 °C 10.6 °C 1013.4 hPa South 1.9 km/h   67% 0 mm 49.0 W/m2 OVC
11:25 16.4 °C 10.6 °C 1013.4 hPa South 3.7 km/h 3.7 km/h 68% 0 mm 51.0 W/m2 OVC
11:30 16 °C 10.1 °C 1013.4 hPa South 1.6 km/h   68% 0 mm 63.0 W/m2 OVC
11:35 15.7 °C 10.1 °C 1013.4 hPa South 3.2 km/h 3.2 km/h 69% 0 mm 113.0 W/m2 OVC
11:40 15.6 °C 10.1 °C 1013.4 hPa SSE 1.9 km/h 1.9 km/h 70% 0 mm 56.0 W/m2 OVC
11:45 15.6 °C 10.1 °C 1013.4 hPa South 1.9 km/h 1.9 km/h 70% 0 mm 60.0 W/m2 OVC
11:50 15.6 °C 10.3 °C 1013.4 hPa South 1.9 km/h 1.9 km/h 71% 0 mm 81.0 W/m2 OVC
11:55 15.7 °C 10.4 °C 1013.1 hPa SSW 1.9 km/h 1.9 km/h 71% 0 mm 151.0 W/m2 OVC
12:00 15.9 °C 10.7 °C 1013.1 hPa South 3.2 km/h 3.2 km/h 71% 0 mm 125.0 W/m2 OVC
12:05 16.1 °C 10.6 °C 1013.1 hPa South 1.9 km/h   70% 0 mm 69.0 W/m2 OVC
12:10 16.2 °C 10.5 °C 1013.1 hPa South 1.9 km/h   69% 0 mm 51.0 W/m2 OVC
12:15 16.2 °C 10.5 °C 1013.1 hPa South 1.9 km/h 1.9 km/h 69% 0 mm 67.0 W/m2 OVC
12:20 16.2 °C 10.3 °C 1013.1 hPa South 1.9 km/h 1.9 km/h 68% 0 mm 39.0 W/m2 OVC
12:25 16.2 °C 10.3 °C 1013.1 hPa Calm     68% 0 mm 79.0 W/m2 OVC
12:30 16.3 °C 10.4 °C 1012.8 hPa Calm     68% 0 mm 146.0 W/m2 OVC
12:35 16.6 °C 10.4 °C 1013.1 hPa Calm     67% 0 mm 72.0 W/m2 OVC
12:40 16.8 °C 10.4 °C 1013.1 hPa SSE 5.6 km/h   66% 0 mm 100.0 W/m2 OVC
12:45 17 °C 9.7 °C 1012.8 hPa SW 7.4 km/h 7.4 km/h 62% 0 mm 155.0 W/m2 OVC
12:50 17.3 °C 9.7 °C 1012.8 hPa SSE 5.6 km/h 5.6 km/h 61% 0 mm 77.0 W/m2 OVC
12:55 17.6 °C 9.9 °C 1012.8 hPa NW 7.4 km/h 7.4 km/h 61% 0 mm 74.0 W/m2 OVC
13:00 17.4 °C 10.3 °C 1013.1 hPa SSW 5.6 km/h 5.6 km/h 63% 1.78 mm 169.0 W/m2 RA
13:05 17.2 °C 10.6 °C 1013.1 hPa Calm   0.6 km/h 65% 1.78 mm 188.0 W/m2 RA
13:10 17.1 °C 10.7 °C 1013.1 hPa Calm     66% 1.78 mm 174.0 W/m2 OVC
13:15 17.2 °C 11.2 °C 1013.1 hPa South 1.9 km/h   68% 1.78 mm 128.0 W/m2 OVC
13:20 17.3 °C 11.3 °C 1013.4 hPa NNW 1.9 km/h 1.9 km/h 68% 1.78 mm 42.0 W/m2 OVC
13:25 17.1 °C 10.7 °C 1013.4 hPa SSW 9.3 km/h 9.3 km/h 66% 1.78 mm 42.0 W/m2 OVC
13:30 16.7 °C 10.6 °C 1013.4 hPa SW 3.7 km/h   67% 1.78 mm 77.0 W/m2 OVC
13:32 16.7 °C 10.6 °C 1013.4 hPa NW 1.9 km/h 1.9 km/h 67% 1.78 mm 102.0 W/m2 OVC
13:37 16.6 °C 10.9 °C 1013.4 hPa NW 3.7 km/h 3.7 km/h 69% 1.78 mm 195.0 W/m2 OVC
13:42 16.6 °C 11.1 °C 1013.4 hPa Calm     70% 1.78 mm 60.0 W/m2 OVC
13:47 16.7 °C 11.4 °C 1013.8 hPa ESE 11.3 km/h 11.3 km/h 71% 1.78 mm 21.0 W/m2 OVC
13:52 16.2 °C 10.8 °C 1013.4 hPa NW 13 km/h 13 km/h 70% 3.05 mm 26.0 W/m2 RA
13:57 15.8 °C 10.6 °C 1013.4 hPa SSW 7.4 km/h 7.4 km/h 71% 1.52 mm 26.0 W/m2 RA
14:02 15.3 °C 10.1 °C 1013.4 hPa NW 18.5 km/h 18.5 km/h 71% 1.52 mm 25.0 W/m2 RA
14:07 15.1 °C 10.3 °C 1013.4 hPa NW 13 km/h 13 km/h 73% 1.52 mm 23.0 W/m2 OVC
14:12 14.9 °C 10.2 °C 1013.8 hPa WNW 11.1 km/h 11.1 km/h 73% 1.52 mm 25.0 W/m2 OVC
14:17 14.9 °C 10.3 °C 1013.8 hPa West 9.7 km/h 9.7 km/h 74% 1.52 mm 32.0 W/m2 OVC
14:22 14.8 °C 10.2 °C 1013.8 hPa NNW 13 km/h 13 km/h 74% 1.52 mm 56.0 W/m2 OVC
14:27 14.8 °C 10.4 °C 1013.8 hPa NNW 7.4 km/h 7.4 km/h 75% 1.52 mm 120.0 W/m2 OVC
14:32 14.9 °C 10.7 °C 1013.8 hPa South 5.6 km/h 5.6 km/h 76% 1.52 mm 98.0 W/m2 OVC
14:33 14.9 °C 10.7 °C 1013.8 hPa NW 5.6 km/h 5.6 km/h 76% 1.52 mm 90.0 W/m2 OVC
14:38 14.9 °C 10.8 °C 1013.8 hPa NNW 13 km/h 13 km/h 76% 1.52 mm 63.0 W/m2 OVC
14:43 14.9 °C 10.6 °C 1013.8 hPa NNW 4.8 km/h 4.8 km/h 75% 1.52 mm 95.0 W/m2 OVC
14:48 15 °C 10.4 °C 1013.8 hPa WNW 9.3 km/h 9.3 km/h 74% 1.52 mm 120.0 W/m2 OVC
14:53 15 °C 10.4 °C 1013.8 hPa NE 11.3 km/h 11.3 km/h 74% 0.25 mm 86.0 W/m2 OVC
14:58 15.1 °C 10.3 °C 1013.8 hPa NW 13 km/h 13 km/h 73% 0 mm 60.0 W/m2 OVC
15:03 15.2 °C 10.6 °C 1013.8 hPa SSW 5.6 km/h 5.6 km/h 74% 0 mm 54.0 W/m2 OVC
15:08 15.2 °C 10.6 °C 1013.8 hPa SSW 7.4 km/h 7.4 km/h 74% 0 mm 84.0 W/m2 OVC
15:13 15.2 °C 10.6 °C 1013.8 hPa WSW 7.4 km/h 7.4 km/h 74% 0 mm 153.0 W/m2 OVC
15:18 15.2 °C 10.8 °C 1013.8 hPa NW 5.6 km/h 5.6 km/h 75% 0 mm 297.0 W/m2 OVC
15:23 15.7 °C 11.3 °C 1013.8 hPa WNW 1.9 km/h 1.9 km/h 75% 0 mm 984.0 W/m2 OVC
15:28 16.3 °C 11.2 °C 1013.8 hPa NNW 7.4 km/h 7.4 km/h 72% 0 mm 949.0 W/m2 OVC
15:33 17.2 °C 11.4 °C 1013.8 hPa NE 8 km/h 8 km/h 69% 0 mm 974.0 W/m2 OVC
15:38 17.6 °C 11.7 °C 1013.8 hPa WNW 9.3 km/h 9.3 km/h 68% 0 mm 895.0 W/m2 OVC
15:43 18.1 °C 11.8 °C 1013.8 hPa NNW 5.6 km/h 5.6 km/h 67% 0 mm 970.0 W/m2 OVC
15:48 18.2 °C 11.8 °C 1013.8 hPa NW 6.4 km/h 6.4 km/h 66% 0 mm 197.0 W/m2 OVC
15:53 17.9 °C 10.6 °C 1013.8 hPa North 9.3 km/h 9.3 km/h 62% 0 mm 984.0 W/m2 OVC
15:58 18.1 °C 10.7 °C 1013.8 hPa NNW 7.4 km/h 7.4 km/h 62% 0 mm 396.0 W/m2 OVC
16:03 18.5 °C 11.1 °C 1013.8 hPa WNW 5.6 km/h 5.6 km/h 62% 0 mm 846.0 W/m2 OVC
16:08 18.8 °C 10.9 °C 1013.8 hPa WNW 5.6 km/h 5.6 km/h 60% 0 mm 828.0 W/m2 OVC
16:13 18.6 °C 10.7 °C 1013.8 hPa West 7.4 km/h 7.4 km/h 60% 0 mm 107.0 W/m2 OVC
16:18 18.6 °C 10.9 °C 1013.8 hPa WSW 5.6 km/h 5.6 km/h 61% 0 mm 285.0 W/m2 OVC
16:23 18.8 °C 10.9 °C 1013.8 hPa NW 9.3 km/h 9.3 km/h 60% 0 mm 353.0 W/m2 OVC
16:28 18.9 °C 10.7 °C 1013.8 hPa WSW 9.3 km/h 9.3 km/h 59% 0 mm 105.0 W/m2 OVC
16:33 18.7 °C 10.6 °C 1013.8 hPa North 9.7 km/h 9.7 km/h 59% 0 mm 128.0 W/m2 OVC
16:38 18.3 °C 9.7 °C 1014.1 hPa NNW 17.7 km/h 17.7 km/h 57% 0 mm 160.0 W/m2 OVC
16:43 18.1 °C 9.7 °C 1014.1 hPa NW 14.8 km/h 14.8 km/h 58% 0 mm 156.0 W/m2 OVC
16:48 18.1 °C 10 °C 1014.1 hPa NW 5.6 km/h 5.6 km/h 59% 0 mm 199.0 W/m2 OVC
16:53 18.4 °C 10.3 °C 1014.1 hPa NNW 5.6 km/h 5.6 km/h 59% 0 mm 907.0 W/m2 OVC
16:58 19.1 °C 10.3 °C 1014.1 hPa South 7.4 km/h 7.4 km/h 57% 0 mm 179.0 W/m2 OVC
17:03 19.2 °C 9.9 °C 1014.1 hPa NW 9.3 km/h 9.3 km/h 55% 0 mm 304.0 W/m2 OVC
17:08 19.3 °C 9.2 °C 1013.8 hPa South 16.7 km/h 16.7 km/h 52% 0 mm 294.0 W/m2 OVC
17:13 19.6 °C 8.9 °C 1013.8 hPa SSW 5.6 km/h 5.6 km/h 50% 0 mm 510.0 W/m2 OVC
17:18 19.6 °C 9.2 °C 1014.1 hPa NW 14.8 km/h 14.8 km/h 51% 0 mm 153.0 W/m2 OVC
17:23 19.4 °C 9.3 °C 1014.1 hPa NW 5.6 km/h 5.6 km/h 52% 0 mm 174.0 W/m2 OVC
17:28 19.4 °C 9.3 °C 1014.1 hPa West 7.4 km/h 7.4 km/h 52% 0 mm 192.0 W/m2 OVC
17:33 19.6 °C 9.2 °C 1014.1 hPa NW 5.6 km/h 5.6 km/h 51% 0 mm 237.0 W/m2 OVC
17:38 20.1 °C 9 °C 1013.8 hPa ENE 14.8 km/h 14.8 km/h 49% 0 mm 107.0 W/m2 OVC
17:43 20.2 °C 8.8 °C 1013.8 hPa NNW 11.1 km/h 11.1 km/h 48% 0 mm 679.0 W/m2 OVC
17:48 20.3 °C 8.7 °C 1014.1 hPa WNW 5.6 km/h 5.6 km/h 47% 0 mm 130.0 W/m2 OVC
17:53 20.7 °C 8.7 °C 1014.1 hPa NNW 5.6 km/h 5.6 km/h 46% 0 mm 591.0 W/m2 OVC
17:58 21.4 °C 8.7 °C 1014.1 hPa NNW 5.6 km/h 5.6 km/h 44% 0 mm 570.0 W/m2 OVC
18:03 21.8 °C 8.7 °C 1014.1 hPa WNW 5.6 km/h 5.6 km/h 43% 0 mm 534.0 W/m2 OVC
18:08 21.8 °C 8.3 °C 1014.1 hPa WNW 14.8 km/h 14.8 km/h 42% 0 mm 441.0 W/m2 OVC
18:13 21.4 °C 7.9 °C 1014.1 hPa SW 11.3 km/h 11.3 km/h 42% 0 mm 429.0 W/m2 OVC
18:18 20.9 °C 7.5 °C 1013.8 hPa NW 14.8 km/h 14.8 km/h 42% 0 mm 81.0 W/m2 OVC
Historical Data from High Park Village Toronto since August 2007
Compliments of Weather Underground - 2.75 mb